Time;durP1;ratioP1;P1;durP2;ratioP2;P2;SDS_P1;SDS_P2;PMS_P1;PMS_P2;Temp;Humidity;BMP_temperature;BMP_pressure;BME280_temperature;BME280_humidity;BME280_pressure;Samples;Min_cycle;Max_cycle;Signal;HPM_P1;HPM_P2
2022/03/11 00:02:02;;;;;;;;;;;-2.10;45.30;;;;;;4963219;28;20012;-80
2022/03/11 00:04:28;;;;;;;13.57;3.72;;;-2.00;45.30;;;;;;4962504;28;19895;-82
2022/03/11 00:06:54;;;;;;;;;;;-2.10;45.30;;;;;;4962785;28;20048;-81
2022/03/11 00:09:20;;;;;;;9.00;3.10;;;-2.00;45.10;;;;;;4962452;28;19901;-81
2022/03/11 00:11:45;;;;;;;;;;;-2.00;45.20;;;;;;4962677;28;20016;-81
2022/03/11 00:14:11;;;;;;;8.10;3.72;;;-2.20;45.10;;;;;;4962049;28;19906;-81
2022/03/11 00:16:37;;;;;;;;;;;-1.90;45.30;;;;;;4961015;29;20020;-82
2022/03/11 00:19:03;;;;;;;7.97;3.22;;;-2.20;45.30;;;;;;4960462;28;19923;-84
2022/03/11 00:21:29;;;;;;;;;;;-2.30;45.70;;;;;;4960675;28;20044;-81
2022/03/11 00:23:55;;;;;;;8.50;3.23;;;-2.40;46.10;;;;;;4960638;29;19894;-81
2022/03/11 01:56:26;;;;;;;8.25;3.40;;;-3.40;49.90;;;;;;5250163;23;19926;-80
2022/03/11 01:58:54;;;;;;;9.88;3.70;;;-3.30;50.00;;;;;;4938735;29;20072;-80
2022/03/11 02:01:21;;;;;;;9.60;3.85;;;-3.40;49.90;;;;;;4941734;29;20080;-81
2022/03/11 02:03:47;;;;;;;12.45;3.50;;;-3.30;49.90;;;;;;4940990;29;20019;-81
2022/03/11 02:06:14;;;;;;;6.80;3.28;;;-3.20;49.80;;;;;;4941335;29;20076;-82
2022/03/11 02:08:41;;;;;;;7.07;3.30;;;-3.30;49.90;;;;;;4940724;29;20043;-83
2022/03/11 02:11:08;;;;;;;8.48;3.55;;;-3.40;50.20;;;;;;4944383;29;20032;-77
2022/03/11 02:13:49;;;;;;;7.40;3.70;;;-3.50;50.40;;;;;;4945490;29;20020;-81
2022/03/11 02:16:22;;;;;;;12.98;4.90;;;-3.70;50.70;;;;;;4944948;29;20024;-81
2022/03/11 02:18:48;;;;;;;11.27;4.75;;;-3.70;51.00;;;;;;4944342;29;20012;-81
2022/03/11 02:21:16;;;;;;;6.40;3.40;;;-3.60;51.40;;;;;;4943860;29;20051;-80
2022/03/11 02:23:44;;;;;;;9.52;3.78;;;-3.80;51.60;;;;;;4942911;29;20032;-80
2022/03/11 02:26:10;;;;;;;6.57;3.63;;;-3.80;51.80;;;;;;4941655;29;20024;-81
2022/03/11 02:28:35;;;;;;;;;;;-3.80;51.90;;;;;;4941328;29;20047;-78
2022/03/11 02:31:01;;;;;;;7.43;3.60;;;-3.60;51.70;;;;;;4924725;29;20467;-78
2022/03/11 02:33:27;;;;;;;;;;;-3.60;51.50;;;;;;4917056;29;20032;-78
2022/03/11 02:35:53;;;;;;;11.77;4.07;;;-3.50;51.30;;;;;;4915173;29;20350;-79
2022/03/11 02:38:19;;;;;;;;;;;-3.60;51.20;;;;;;4916338;29;20028;-78
2022/03/11 02:40:45;;;;;;;11.30;3.85;;;-3.50;51.10;;;;;;4914827;29;19990;-78
2022/03/11 02:43:11;;;;;;;;;;;-3.60;51.20;;;;;;4915548;29;20166;-77
2022/03/11 02:45:36;;;;;;;10.95;4.32;;;-3.60;51.40;;;;;;4914711;29;20384;-78
2022/03/11 02:48:02;;;;;;;13.70;6.18;;;-3.70;51.70;;;;;;4914636;29;20393;-78
2022/03/11 02:50:28;;;;;;;;;;;-3.70;52.20;;;;;;4915690;29;20043;-79
2022/03/11 02:52:53;;;;;;;11.73;4.60;;;-3.80;52.30;;;;;;4914842;29;20325;-77
2022/03/11 02:55:19;;;;;;;;;;;-3.80;52.40;;;;;;4913848;29;20112;-77
2022/03/11 02:57:44;;;;;;;12.20;6.00;;;-3.70;52.30;;;;;;4914515;29;19942;-78
2022/03/11 03:00:10;;;;;;;;;;;-3.80;52.10;;;;;;4915633;29;20044;-78
2022/03/11 03:02:37;;;;;;;9.65;4.15;;;-3.80;52.40;;;;;;4915966;29;19907;-77
2022/03/11 03:05:04;;;;;;;8.32;3.80;;;-3.90;52.60;;;;;;4914809;29;20028;-78
2022/03/11 03:07:30;;;;;;;9.13;3.85;;;-3.90;52.90;;;;;;4913951;29;20066;-78
2022/03/11 03:09:58;;;;;;;8.82;3.67;;;-3.90;53.20;;;;;;4913851;29;20084;-78
2022/03/11 03:12:24;;;;;;;9.18;3.53;;;-3.90;53.20;;;;;;4915482;29;20028;-77
2022/03/11 03:14:50;;;;;;;10.35;3.95;;;-3.90;53.20;;;;;;4913680;29;20041;-79
2022/03/11 03:17:18;;;;;;;;;;;-3.90;53.40;;;;;;4915568;29;20036;-77
2022/03/11 03:19:44;;;;;;;10.75;3.58;;;-3.80;53.20;;;;;;4915343;29;20333;-78
2022/03/11 03:22:09;;;;;;;8.15;3.42;;;-3.80;53.10;;;;;;4914791;29;20485;-78
2022/03/11 03:24:35;;;;;;;;;;;-3.80;53.10;;;;;;4916271;29;20036;-78
2022/03/11 03:27:02;;;;;;;8.75;3.55;;;-3.80;53.40;;;;;;4920047;29;20598;-78
2022/03/11 03:29:28;;;;;;;10.38;3.95;;;-3.90;53.40;;;;;;4916559;29;20533;-78
2022/03/11 03:31:57;;;;;;;;;;;-3.90;53.70;;;;;;4921260;29;20024;-78
2022/03/11 03:34:29;;;;;;;9.65;3.53;;;-4.00;54.10;;;;;;4919716;29;20458;-78
2022/03/11 03:36:57;;;;;;;8.43;3.83;;;-3.90;53.70;;;;;;4916054;29;20043;-77
2022/03/11 03:39:23;;;;;;;9.75;4.32;;;-3.90;53.50;;;;;;4914752;29;20024;-79
2022/03/11 03:41:48;;;;;;;;;;;-3.90;53.70;;;;;;4916921;29;20034;-79
2022/03/11 03:44:14;;;;;;;9.60;4.13;;;-3.90;54.00;;;;;;4915482;29;20379;-78
2022/03/11 03:46:40;;;;;;;;;;;-3.80;53.90;;;;;;4915286;29;20059;-78
2022/03/11 03:49:05;;;;;;;8.65;4.07;;;-3.80;53.80;;;;;;4916573;29;20009;-78
2022/03/11 03:51:31;;;;;;;;;;;-3.70;53.70;;;;;;4916148;29;20028;-78
2022/03/11 03:53:57;;;;;;;9.77;3.60;;;-3.80;54.00;;;;;;4914484;29;20302;-79
2022/03/11 03:56:22;;;;;;;12.10;3.88;;;-3.80;54.20;;;;;;4914468;29;20055;-78
2022/03/11 03:58:48;;;;;;;;;;;-3.90;54.10;;;;;;4916468;29;20020;-78
2022/03/11 04:01:14;;;;;;;11.15;4.07;;;-3.90;54.40;;;;;;4915291;29;19926;-78
2022/03/11 04:03:40;;;;;;;;;;;-3.90;54.40;;;;;;4915349;29;20032;-78
2022/03/11 04:06:05;;;;;;;10.73;3.72;;;-3.80;54.60;;;;;;4915987;29;19950;-79
2022/03/11 04:08:31;;;;;;;;;;;-3.90;54.70;;;;;;4917691;29;20033;-78
2022/03/11 04:10:57;;;;;;;10.57;3.72;;;-3.80;54.30;;;;;;4915231;29;19918;-79
2022/03/11 04:13:22;;;;;;;;;;;-3.70;53.90;;;;;;4916176;29;20055;-79
2022/03/11 04:15:48;;;;;;;8.02;3.90;;;-3.80;53.70;;;;;;4915726;29;19911;-78
2022/03/11 04:18:13;;;;;;;;;;;-3.80;53.80;;;;;;4914564;29;20055;-79
2022/03/11 04:20:40;;;;;;;13.57;5.18;;;-3.90;54.40;;;;;;4914208;29;19958;-79
2022/03/11 04:23:05;;;;;;;10.68;4.00;;;-4.00;54.90;;;;;;4914384;29;20119;-79
2022/03/11 04:25:31;;;;;;;;;;;-4.10;55.20;;;;;;4915889;29;20111;-78
2022/03/11 04:27:57;;;;;;;8.18;3.58;;;-4.10;55.10;;;;;;4913615;29;20686;-78
2022/03/11 04:30:22;;;;;;;;;;;-4.20;55.20;;;;;;4915145;29;20087;-78
2022/03/11 04:32:48;;;;;;;9.27;4.45;;;-4.30;55.60;;;;;;4915294;29;19907;-78
2022/03/11 04:35:13;;;;;;;12.07;5.05;;;-4.40;56.50;;;;;;4915357;29;20430;-78
2022/03/11 04:37:39;;;;;;;9.85;5.07;;;-4.50;57.30;;;;;;4915190;29;20548;-77
2022/03/11 04:40:05;;;;;;;;;;;-4.60;57.90;;;;;;4915998;29;20040;-79
2022/03/11 04:42:31;;;;;;;12.18;5.38;;;-4.70;59.00;;;;;;4915246;29;19907;-79
2022/03/11 04:44:56;;;;;;;14.05;6.45;;;-4.70;59.40;;;;;;4917134;29;20035;-79
2022/03/11 04:47:22;;;;;;;;;;;-4.80;59.80;;;;;;4915443;29;20036;-77
2022/03/11 04:49:48;;;;;;;17.10;5.93;;;-4.90;60.80;;;;;;4912729;29;20576;-78
2022/03/11 04:52:13;;;;;;;13.23;6.00;;;-4.90;61.00;;;;;;4913197;29;20461;-79
2022/03/11 04:54:39;;;;;;;13.57;6.10;;;-5.00;61.60;;;;;;4913150;29;20028;-79
2022/03/11 04:57:05;;;;;;;;;;;-5.00;62.30;;;;;;4913205;29;20080;-78
2022/03/11 04:59:31;;;;;;;12.65;5.53;;;-5.10;63.80;;;;;;4912195;29;20664;-78
2022/03/11 05:01:56;;;;;;;12.40;5.25;;;-5.10;63.40;;;;;;4913208;29;20087;-78
2022/03/11 05:04:22;;;;;;;14.60;6.18;;;-5.10;63.90;;;;;;4911609;29;20032;-78
2022/03/11 05:06:47;;;;;;;;;;;-5.10;64.20;;;;;;4911855;29;20029;-77
2022/03/11 05:09:13;;;;;;;17.95;7.95;;;-5.20;66.00;;;;;;4911002;29;20431;-78
2022/03/11 05:11:38;;;;;;;;;;;-5.10;66.70;;;;;;4911025;29;20024;-78
2022/03/11 05:14:04;;;;;;;25.42;7.80;;;-5.10;67.90;;;;;;4910785;29;19966;-79
2022/03/11 05:16:30;;;;;;;21.17;8.77;;;-5.10;67.50;;;;;;4911012;29;20119;-78
2022/03/11 05:18:56;;;;;;;19.73;7.93;;;-5.10;67.20;;;;;;4910974;29;20140;-78
2022/03/11 05:21:21;;;;;;;21.30;9.13;;;-5.10;67.30;;;;;;4910950;29;20075;-78
2022/03/11 05:23:48;;;;;;;24.38;9.13;;;-5.10;67.80;;;;;;4911047;29;20087;-79
2022/03/11 05:26:26;;;;;;;22.35;8.27;;;-5.10;68.20;;;;;;4911007;29;20040;-78
2022/03/11 05:28:53;;;;;;;19.50;7.53;;;-5.00;68.40;;;;;;4912910;29;20084;-78
2022/03/11 05:31:19;;;;;;;17.33;6.38;;;-5.00;69.70;;;;;;4912791;29;20048;-78
2022/03/11 05:33:45;;;;;;;16.13;6.30;;;-4.90;69.20;;;;;;4911631;29;20060;-78
2022/03/11 05:36:11;;;;;;;16.00;6.25;;;-4.80;68.50;;;;;;4911322;29;20044;-79
2022/03/11 05:38:36;;;;;;;;;;;-4.70;68.10;;;;;;4913580;29;20036;-78
2022/03/11 05:41:02;;;;;;;17.17;6.30;;;-4.60;68.30;;;;;;4911460;29;19919;-78
2022/03/11 05:43:27;;;;;;;;;;;-4.60;67.50;;;;;;4913593;29;20024;-79
2022/03/11 05:45:53;;;;;;;19.35;7.65;;;-4.50;67.30;;;;;;4918206;29;19911;-78
2022/03/11 05:48:18;;;;;;;;;;;-4.50;67.00;;;;;;4919061;29;20020;-78
2022/03/11 05:50:44;;;;;;;18.45;7.05;;;-4.50;67.50;;;;;;4919830;29;20401;-78
2022/03/11 05:53:10;;;;;;;18.27;8.13;;;-4.50;67.10;;;;;;4919249;29;20546;-79
2022/03/11 05:55:35;;;;;;;23.98;9.52;;;-4.40;67.40;;;;;;4920240;29;20104;-79
2022/03/11 05:58:01;;;;;;;;;;;-4.20;67.20;;;;;;4918395;29;20203;-78
2022/03/11 06:00:26;;;;;;;23.80;9.75;;;-4.00;66.50;;;;;;4919908;29;19970;-79
2022/03/11 06:02:52;;;;;;;26.85;10.15;;;-3.60;65.20;;;;;;4922064;29;20036;-79
2022/03/11 06:05:18;;;;;;;;;;;-3.20;62.90;;;;;;4921964;29;20039;-78
2022/03/11 06:07:43;;;;;;;30.92;11.90;;;-2.80;60.00;;;;;;4921316;29;20387;-78
2022/03/11 06:10:09;;;;;;;;;;;-2.30;58.40;;;;;;4925874;29;20071;-78
2022/03/11 06:12:35;;;;;;;26.23;9.68;;;-2.00;56.10;;;;;;4924554;29;19997;-79
2022/03/11 06:15:14;;;;;;;;;;;-1.60;55.20;;;;;;4920909;29;20079;-79
2022/03/11 06:17:40;;;;;;;16.23;7.07;;;-1.30;53.60;;;;;;4922231;29;19906;-79
2022/03/11 06:20:08;;;;;;;;;;;-0.90;51.30;;;;;;4922766;29;20528;-80
2022/03/11 06:22:37;;;;;;;23.02;9.18;;;-0.80;49.50;;;;;;4922460;29;19949;-78
2022/03/11 06:25:06;;;;;;;17.38;8.10;;;-0.40;50.30;;;;;;4922412;29;20055;-79
2022/03/11 06:27:32;;;;;;;16.77;7.28;;;-0.10;48.90;;;;;;4924391;29;20032;-79
2022/03/11 06:29:57;;;;;;;;;;;0.30;46.80;;;;;;4923987;29;20386;-79
2022/03/11 06:32:23;;;;;;;26.48;9.82;;;0.80;45.10;;;;;;4926425;29;19907;-79
2022/03/11 06:34:48;;;;;;;23.67;10.30;;;1.40;44.10;;;;;;4927121;29;20047;-79
2022/03/11 06:37:17;;;;;;;14.85;7.53;;;2.00;42.40;;;;;;4923601;29;20036;-80
2022/03/11 06:39:42;;;;;;;16.35;6.80;;;2.40;40.90;;;;;;4915254;29;20036;-79
2022/03/11 06:42:08;;;;;;;18.60;9.63;;;3.00;39.10;;;;;;4916527;29;20038;-82
2022/03/11 06:44:34;;;;;;;17.33;6.82;;;3.80;37.40;;;;;;4914726;29;20135;-80
2022/03/11 06:46:59;;;;;;;12.63;6.75;;;4.60;36.10;;;;;;4915128;29;20172;-84
2022/03/11 06:49:25;;;;;;;;;;;5.30;34.40;;;;;;4915304;29;20114;-80
2022/03/11 06:51:50;;;;;;;16.35;6.97;;;6.00;32.20;;;;;;4914767;29;19918;-82
2022/03/11 06:54:16;;;;;;;12.32;6.20;;;6.30;31.40;;;;;;4914586;29;20044;-80
2022/03/11 06:56:42;;;;;;;8.57;4.53;;;6.80;31.00;;;;;;4912325;29;20070;-80
2022/03/11 06:59:08;;;;;;;10.60;5.22;;;7.40;29.00;;;;;;4911553;29;20051;-79
2022/03/11 07:01:33;;;;;;;;;;;7.60;28.10;;;;;;4912341;29;20119;-79
2022/03/11 07:04:01;;;;;;;8.98;5.10;;;7.90;27.60;;;;;;4912542;29;20054;-79
2022/03/11 07:06:27;;;;;;;8.38;4.22;;;8.30;27.20;;;;;;4913247;29;20024;-80
2022/03/11 07:08:52;;;;;;;;;;;8.50;27.10;;;;;;4911312;29;20487;-78
2022/03/11 07:11:18;;;;;;;9.25;5.00;;;8.80;26.10;;;;;;4911588;29;19918;-81
2022/03/11 07:13:44;;;;;;;;;;;8.80;25.90;;;;;;4911514;29;20024;-82
2022/03/11 07:16:10;;;;;;;12.35;4.78;;;8.60;25.50;;;;;;4912751;29;20434;-80
2022/03/11 07:18:36;;;;;;;10.30;4.72;;;8.90;25.80;;;;;;4912605;29;20036;-81
2022/03/11 07:21:02;;;;;;;;;;;9.40;25.20;;;;;;4913220;29;20119;-81
2022/03/11 07:23:29;;;;;;;8.40;4.40;;;9.80;24.30;;;;;;4911713;29;20377;-81
2022/03/11 07:25:54;;;;;;;10.32;4.35;;;9.70;24.50;;;;;;4910866;29;20127;-79
2022/03/11 07:28:20;;;;;;;;;;;10.10;24.30;;;;;;4913005;29;20442;-80
2022/03/11 07:30:46;;;;;;;7.57;3.95;;;10.40;22.80;;;;;;4910752;29;20440;-81
2022/03/11 07:33:12;;;;;;;;;;;10.00;23.50;;;;;;4911107;29;20136;-80
2022/03/11 07:35:38;;;;;;;8.13;4.32;;;10.10;22.60;;;;;;4912254;29;19934;-80
2022/03/11 07:38:04;;;;;;;;;;;10.60;23.10;;;;;;4910367;29;20020;-80
2022/03/11 07:40:29;;;;;;;7.40;4.47;;;11.20;21.90;;;;;;4912402;29;20672;-79
2022/03/11 07:42:55;;;;;;;;;;;11.40;21.50;;;;;;4911584;29;20119;-79
2022/03/11 07:45:21;;;;;;;9.65;4.13;;;11.20;21.40;;;;;;4911969;29;20329;-79
2022/03/11 07:47:46;;;;;;;;;;;11.10;21.00;;;;;;4912485;29;20036;-82
2022/03/11 07:50:13;;;;;;;10.55;4.82;;;11.30;21.90;;;;;;4912209;29;19915;-81
2022/03/11 07:52:39;;;;;;;10.32;4.50;;;10.90;21.40;;;;;;4911627;29;20108;-79
2022/03/11 07:55:07;;;;;;;8.15;4.43;;;10.50;21.60;;;;;;4910290;29;20032;-80
2022/03/11 07:57:35;;;;;;;7.75;4.45;;;11.00;20.60;;;;;;4911517;29;20075;-81
2022/03/11 08:00:04;;;;;;;10.98;6.10;;;11.00;21.20;;;;;;4910248;29;20581;-82
2022/03/11 08:02:30;;;;;;;9.02;4.05;;;11.40;20.90;;;;;;4910691;29;20047;-81
2022/03/11 08:04:57;;;;;;;8.80;3.70;;;11.60;20.80;;;;;;4911697;29;20032;-82
2022/03/11 08:07:23;;;;;;;7.20;4.35;;;11.80;20.40;;;;;;4911737;29;20394;-82
2022/03/11 08:09:48;;;;;;;;;;;11.80;20.60;;;;;;4909951;29;20501;-81
2022/03/11 08:12:14;;;;;;;7.25;4.30;;;11.70;20.50;;;;;;4910346;29;20280;-81
2022/03/11 08:14:40;;;;;;;;;;;11.90;20.50;;;;;;4911904;29;20028;-82
2022/03/11 08:17:06;;;;;;;10.60;4.93;;;12.10;20.10;;;;;;4910618;29;20607;-81
2022/03/11 08:19:32;;;;;;;6.35;4.18;;;12.40;20.00;;;;;;4911569;29;20040;-82
2022/03/11 08:21:58;;;;;;;8.02;4.00;;;12.70;19.90;;;;;;4911112;29;20036;-81
2022/03/11 08:24:24;;;;;;;;;;;12.90;19.70;;;;;;4910707;29;20043;-80
2022/03/11 08:26:50;;;;;;;12.23;4.50;;;12.90;19.40;;;;;;4909378;29;19918;-79
2022/03/11 08:29:16;;;;;;;;;;;12.90;18.90;;;;;;4910573;29;20032;-79
2022/03/11 08:31:43;;;;;;;8.27;4.78;;;12.80;19.10;;;;;;4911463;29;20666;-79
2022/03/11 08:34:09;;;;;;;7.68;3.30;;;12.80;19.20;;;;;;4910850;29;20052;-79
2022/03/11 08:36:35;;;;;;;6.43;4.30;;;13.20;19.20;;;;;;4909913;29;20067;-79
2022/03/11 08:39:01;;;;;;;;;;;12.80;18.70;;;;;;4909662;29;20526;-79
2022/03/11 08:41:27;;;;;;;7.60;3.50;;;13.00;18.70;;;;;;4911424;29;20021;-80
2022/03/11 08:43:54;;;;;;;8.93;3.28;;;13.30;18.20;;;;;;4911097;29;20063;-79
2022/03/11 08:46:20;;;;;;;7.00;3.25;;;12.90;18.70;;;;;;4910845;29;20044;-79
2022/03/11 08:48:45;;;;;;;;;;;13.00;19.30;;;;;;4911669;29;20039;-79
2022/03/11 08:51:11;;;;;;;6.75;3.97;;;13.20;18.60;;;;;;4910009;29;20285;-80
2022/03/11 08:53:37;;;;;;;6.40;3.20;;;13.30;18.40;;;;;;4909056;29;20028;-79
2022/03/11 08:56:03;;;;;;;6.00;3.00;;;13.40;18.40;;;;;;4909075;29;20083;-79
2022/03/11 08:58:29;;;;;;;3.50;2.00;;;13.60;18.20;;;;;;4909776;29;20383;-80
2022/03/11 09:00:55;;;;;;;3.22;1.17;;;13.60;16.80;;;;;;4909458;29;20036;-79
2022/03/11 09:03:21;;;;;;;2.83;1.20;;;13.00;15.10;;;;;;4909742;29;20043;-80
2022/03/11 09:05:47;;;;;;;;;;;12.00;14.90;;;;;;4910796;29;20520;-80
2022/03/11 09:08:13;;;;;;;2.67;1.30;;;10.90;15.10;;;;;;4908683;29;20352;-83
2022/03/11 09:10:38;;;;;;;;;;;10.40;15.80;;;;;;4909602;29;20079;-81
2022/03/11 09:13:04;;;;;;;4.32;2.20;;;10.20;15.30;;;;;;4909616;29;19918;-80
2022/03/11 09:15:30;;;;;;;;;;;10.10;15.60;;;;;;4909381;29;20037;-80
2022/03/11 09:17:55;;;;;;;4.28;1.75;;;9.80;16.40;;;;;;4909434;29;19907;-81
2022/03/11 09:20:21;;;;;;;;;;;9.60;16.60;;;;;;4909603;29;20036;-82
2022/03/11 09:22:47;;;;;;;6.85;3.88;;;9.70;16.60;;;;;;4910670;29;19911;-82
2022/03/11 09:25:16;;;;;;;;;;;9.80;16.30;;;;;;4909797;29;20501;-82
2022/03/11 09:27:42;;;;;;;11.52;5.90;;;9.60;16.40;;;;;;4908891;29;20344;-78
2022/03/11 09:30:08;;;;;;;;;;;9.90;17.10;;;;;;4909826;29;20028;-82
2022/03/11 09:32:34;;;;;;;3.33;2.20;;;10.50;17.60;;;;;;4910459;29;19911;-81
2022/03/11 09:34:59;;;;;;;;;;;10.40;15.80;;;;;;4911230;29;20035;-80
2022/03/11 09:37:26;;;;;;;3.25;1.45;;;10.20;15.00;;;;;;4910031;29;19917;-79
2022/03/11 09:39:52;;;;;;;14.02;7.50;;;9.80;15.50;;;;;;4909078;29;20586;-79
2022/03/11 09:42:18;;;;;;;;;;;9.30;16.70;;;;;;4911294;29;20119;-82
2022/03/11 09:44:50;;;;;;;4.22;2.22;;;9.90;16.50;;;;;;4909459;29;20474;-79
2022/03/11 09:47:17;;;;;;;3.75;2.22;;;10.20;15.80;;;;;;4909493;29;20769;-83
2022/03/11 09:49:42;;;;;;;3.72;2.20;;;9.60;15.30;;;;;;4909565;29;20212;-80
2022/03/11 09:52:09;;;;;;;;;;;9.60;15.80;;;;;;4908924;29;20577;-81
2022/03/11 09:54:35;;;;;;;3.80;2.03;;;9.90;16.20;;;;;;4908750;29;19911;-79
2022/03/11 09:57:00;;;;;;;;;;;10.40;16.70;;;;;;4910920;29;20533;-81
2022/03/11 09:59:27;;;;;;;17.90;10.00;;;10.70;15.90;;;;;;4910334;29;20371;-79
2022/03/11 10:01:54;;;;;;;8.15;5.00;;;10.00;16.00;;;;;;4909714;29;20032;-80
2022/03/11 10:04:20;;;;;;;5.28;2.05;;;10.50;15.10;;;;;;4910210;29;20110;-79
2022/03/11 10:06:46;;;;;;;;;;;10.30;14.50;;;;;;4909842;29;20040;-81
2022/03/11 10:09:18;;;;;;;5.22;3.80;;;10.20;15.20;;;;;;4910238;29;20005;-80
2022/03/11 10:11:46;;;;;;;12.77;7.65;;;10.10;15.00;;;;;;4909092;29;20028;-81
2022/03/11 10:14:12;;;;;;;6.75;4.15;;;10.10;15.00;;;;;;4908792;29;20035;-82
2022/03/11 10:16:38;;;;;;;4.45;2.50;;;10.40;15.50;;;;;;4909334;29;20039;-79
2022/03/11 10:19:05;;;;;;;;;;;9.80;15.90;;;;;;4910882;29;20032;-81
2022/03/11 10:21:33;;;;;;;4.32;1.83;;;10.00;15.60;;;;;;4908242;29;19922;-81
2022/03/11 10:24:01;;;;;;;4.63;2.00;;;9.90;15.30;;;;;;4909837;29;20367;-81
2022/03/11 10:26:35;;;;;;;3.17;1.40;;;10.00;15.60;;;;;;4910715;29;20063;-82
2022/03/11 10:29:03;;;;;;;2.78;1.60;;;10.30;15.20;;;;;;4910265;29;20020;-81
2022/03/11 10:31:35;;;;;;;6.95;2.25;;;11.00;14.60;;;;;;4909860;29;20036;-79
2022/03/11 10:34:15;;;;;;;5.10;2.60;;;10.40;14.80;;;;;;4913481;29;20028;-84
2022/03/11 10:37:12;;;;;;;3.75;1.77;;;9.90;15.30;;;;;;4912350;29;20032;-80
2022/03/11 10:39:48;;;;;;;5.00;2.60;;;9.80;15.40;;;;;;4903690;29;20457;-79
2022/03/11 10:42:21;;;;;;;10.52;2.28;;;8.90;15.60;;;;;;4917486;29;20134;-80
2022/03/11 10:45:05;;;;;;;6.05;1.95;;;8.30;15.80;;;;;;4920143;29;20060;-80
2022/03/11 10:47:33;;;;;;;8.00;4.60;;;7.20;16.40;;;;;;4921917;29;20052;-77
2022/03/11 10:50:01;;;;;;;6.38;2.97;;;6.80;17.50;;;;;;4919095;29;20103;-78
2022/03/11 10:52:37;;;;;;;7.05;2.30;;;6.70;18.90;;;;;;4919554;29;20028;-78
2022/03/11 10:55:23;;;;;;;5.35;2.60;;;6.60;18.80;;;;;;4920906;29;20036;-79
2022/03/11 10:57:53;;;;;;;7.80;4.33;;;6.30;18.60;;;;;;4921000;29;20476;-78
2022/03/11 11:00:23;;;;;;;16.85;10.10;;;6.10;17.20;;;;;;4919449;29;20075;-78
2022/03/11 11:02:51;;;;;;;10.93;4.65;;;6.00;17.20;;;;;;4918122;29;20072;-79
2022/03/11 11:05:17;;;;;;;6.90;3.08;;;5.70;17.50;;;;;;4918419;29;20818;-79
2022/03/11 11:07:43;;;;;;;6.03;2.38;;;5.50;18.20;;;;;;4919950;29;20044;-79
2022/03/11 11:10:14;;;;;;;16.15;7.85;;;5.50;18.50;;;;;;4918434;29;20110;-79
2022/03/11 11:12:40;;;;;;;4.85;2.40;;;5.50;18.50;;;;;;4921277;29;20024;-79
2022/03/11 11:15:07;;;;;;;3.75;1.88;;;5.50;18.40;;;;;;4920859;29;20480;-79
2022/03/11 11:17:38;;;;;;;4.57;1.90;;;5.30;18.50;;;;;;4919186;29;20032;-79
2022/03/11 11:20:06;;;;;;;12.30;1.45;;;5.10;18.20;;;;;;4917047;29;20040;-78
2022/03/11 11:22:34;;;;;;;3.05;1.45;;;4.90;18.80;;;;;;4919567;29;20293;-78
2022/03/11 11:25:01;;;;;;;4.00;1.27;;;5.00;19.40;;;;;;4917831;29;20055;-78
2022/03/11 11:27:30;;;;;;;4.40;2.28;;;5.00;18.70;;;;;;4923289;29;20079;-79
2022/03/11 11:29:57;;;;;;;4.50;1.58;;;5.00;18.60;;;;;;4931925;29;20032;-80
2022/03/11 11:32:23;;;;;;;3.65;1.40;;;5.10;18.40;;;;;;4931802;29;20064;-79
2022/03/11 11:34:49;;;;;;;5.78;3.10;;;5.10;18.20;;;;;;4919481;29;20518;-79
2022/03/11 11:37:37;;;;;;;4.65;2.03;;;5.20;18.60;;;;;;4920326;29;20064;-79
2022/03/11 11:40:38;;;;;;;5.15;1.80;;;5.30;18.20;;;;;;4918983;29;20082;-79
2022/03/11 11:43:16;;;;;;;3.17;1.23;;;5.20;17.70;;;;;;4868368;29;20048;-79
2022/03/11 11:45:57;;;;;;;4.00;1.65;;;5.10;17.90;;;;;;4919248;29;20448;-79
2022/03/11 11:48:32;;;;;;;6.45;1.98;;;5.10;18.00;;;;;;4917168;29;20058;-79
2022/03/11 11:51:03;;;;;;;4.93;2.22;;;5.20;18.30;;;;;;4918193;29;20020;-79
2022/03/11 11:53:50;;;;;;;7.13;2.65;;;5.30;18.40;;;;;;4919239;29;20032;-80
2022/03/11 11:56:31;;;;;;;4.72;1.88;;;5.40;18.00;;;;;;4917943;29;20055;-79
2022/03/11 11:58:59;;;;;;;8.68;3.50;;;5.40;17.70;;;;;;4917539;29;20040;-79
2022/03/11 12:01:44;;;;;;;6.82;1.38;;;5.30;17.20;;;;;;4915883;29;20135;-79
2022/03/11 12:04:27;;;;;;;4.90;2.15;;;5.50;16.90;;;;;;4916054;29;20055;-79
2022/03/11 12:06:56;;;;;;;4.95;2.00;;;5.60;17.00;;;;;;4915553;29;20564;-79
2022/03/11 12:09:47;;;;;;;6.22;4.38;;;5.60;17.10;;;;;;4917041;29;20078;-79
2022/03/11 12:12:19;;;;;;;4.18;1.42;;;5.70;16.60;;;;;;4916817;29;20084;-79
2022/03/11 12:14:57;;;;;;;4.50;1.65;;;5.60;16.50;;;;;;4916383;29;20032;-79
2022/03/11 12:17:42;;;;;;;4.95;2.28;;;5.60;16.60;;;;;;4916188;29;20051;-80
2022/03/11 12:20:26;;;;;;;4.68;1.90;;;5.50;16.60;;;;;;4913684;29;20492;-79
2022/03/11 12:23:16;;;;;;;20.55;8.88;;;5.50;16.80;;;;;;4914063;29;20028;-79
2022/03/11 12:25:48;;;;;;;18.00;6.38;;;5.50;16.60;;;;;;4915506;29;20644;-79
2022/03/11 12:28:18;;;;;;;12.10;4.43;;;5.40;16.30;;;;;;4913442;29;20028;-78
2022/03/11 12:30:46;;;;;;;5.50;1.77;;;5.40;16.50;;;;;;4917732;29;20182;-80
2022/03/11 12:33:21;;;;;;;6.10;2.75;;;5.40;16.30;;;;;;4915543;29;20032;-79
2022/03/11 12:35:49;;;;;;;3.92;1.35;;;5.50;16.40;;;;;;4916873;29;20025;-79
2022/03/11 12:38:17;;;;;;;3.33;1.30;;;5.70;15.60;;;;;;4916053;29;20120;-79
2022/03/11 12:40:44;;;;;;;6.25;2.50;;;5.80;15.60;;;;;;4917886;29;20044;-79
2022/03/11 12:43:12;;;;;;;20.15;8.52;;;5.80;15.60;;;;;;4916895;29;20032;-80
2022/03/11 12:45:43;;;;;;;6.80;2.30;;;5.80;16.50;;;;;;4917094;29;20032;-78
2022/03/11 12:48:13;;;;;;;5.05;2.20;;;5.70;16.10;;;;;;4917153;29;20058;-80
2022/03/11 12:50:39;;;;;;;5.07;1.85;;;5.70;15.80;;;;;;4917011;29;20084;-79
2022/03/11 12:53:07;;;;;;;6.40;2.13;;;5.80;15.80;;;;;;4918760;29;20024;-80
2022/03/11 12:55:34;;;;;;;4.35;1.83;;;5.90;16.00;;;;;;4916958;29;20536;-79
2022/03/11 12:58:06;;;;;;;6.15;1.92;;;6.00;15.70;;;;;;4917220;29;20051;-80
2022/03/11 13:00:36;;;;;;;7.95;2.30;;;5.80;15.30;;;;;;4919944;29;20070;-79
2022/03/11 13:03:06;;;;;;;4.88;1.60;;;5.90;15.50;;;;;;4919219;29;20552;-79
2022/03/11 13:05:33;;;;;;;8.65;4.40;;;6.00;15.30;;;;;;4918406;29;20103;-79
2022/03/11 13:08:01;;;;;;;7.05;3.13;;;6.10;15.80;;;;;;4919008;29;20024;-81
2022/03/11 13:10:27;;;;;;;4.05;1.85;;;6.10;15.40;;;;;;4918071;29;20119;-80
2022/03/11 13:12:55;;;;;;;8.90;3.63;;;6.40;14.90;;;;;;4917990;29;20035;-80
2022/03/11 13:15:26;;;;;;;6.55;2.33;;;6.40;14.60;;;;;;4920275;29;20095;-79
2022/03/11 13:18:01;;;;;;;8.35;3.97;;;6.40;14.50;;;;;;4919930;29;20024;-79
2022/03/11 13:20:35;;;;;;;11.48;3.75;;;6.30;14.40;;;;;;4918601;29;20509;-79
2022/03/11 13:23:09;;;;;;;5.32;1.70;;;6.40;14.20;;;;;;4918248;29;20520;-80
2022/03/11 13:25:36;;;;;;;5.22;2.22;;;6.40;13.60;;;;;;4916889;29;20048;-80
2022/03/11 13:28:02;;;;;;;5.68;1.60;;;6.30;13.40;;;;;;4917541;29;20042;-80
2022/03/11 13:30:29;;;;;;;4.88;1.60;;;6.20;13.10;;;;;;4917531;29;20122;-79
2022/03/11 13:32:55;;;;;;;3.25;0.90;;;6.10;13.40;;;;;;4916847;29;20489;-79
2022/03/11 13:35:29;;;;;;;5.03;2.30;;;6.00;13.30;;;;;;4915856;29;20147;-79
2022/03/11 13:37:55;;;;;;;11.73;4.47;;;5.90;13.40;;;;;;4918086;29;20032;-79
2022/03/11 13:40:20;;;;;;;5.15;1.90;;;5.80;13.60;;;;;;4913067;29;20036;-78
2022/03/11 13:42:55;;;;;;;;;;;5.80;13.70;;;;;;4914713;29;20032;-79
2022/03/11 13:45:36;;;;;;;8.43;2.85;;;6.00;13.90;;;;;;4915262;29;19907;-79
2022/03/11 13:48:05;;;;;;;10.23;2.15;;;6.00;13.90;;;;;;4913819;29;20028;-79
2022/03/11 13:50:32;;;;;;;4.03;1.52;;;6.00;13.70;;;;;;4917866;29;20032;-79
2022/03/11 13:52:58;;;;;;;6.13;1.25;;;5.90;13.60;;;;;;4917514;29;20080;-78
2022/03/11 13:55:37;;;;;;;3.78;1.27;;;5.90;13.20;;;;;;4916388;29;20042;-78
2022/03/11 13:58:18;;;;;;;4.22;1.10;;;5.90;13.50;;;;;;4914627;29;20040;-78
2022/03/11 14:00:43;;;;;;;4.03;1.48;;;5.70;13.80;;;;;;4934133;29;20036;-80
2022/03/11 14:03:23;;;;;;;6.07;1.38;;;5.80;14.10;;;;;;4940961;29;20049;-82
2022/03/11 14:05:53;;;;;;;5.10;2.40;;;5.90;13.70;;;;;;4941493;29;20028;-81
2022/03/11 14:08:26;;;;;;;5.20;2.33;;;5.80;14.10;;;;;;4944847;29;20020;-81
2022/03/11 14:11:01;;;;;;;3.53;1.30;;;5.90;14.20;;;;;;4945381;29;20092;-80
2022/03/11 14:13:31;;;;;;;2.63;1.00;;;6.00;13.80;;;;;;4945221;29;20091;-81
2022/03/11 14:16:06;;;;;;;5.03;2.00;;;6.00;13.80;;;;;;4944443;29;20016;-81
2022/03/11 14:18:32;;;;;;;4.20;1.70;;;6.00;13.50;;;;;;4944027;29;20047;-82
2022/03/11 14:20:58;;;;;;;7.68;2.30;;;6.00;13.50;;;;;;4943325;29;20028;-81
2022/03/11 14:23:26;;;;;;;3.38;1.20;;;6.00;13.70;;;;;;4941095;29;20032;-81
2022/03/11 14:25:52;;;;;;;6.78;2.03;;;5.80;13.40;;;;;;4942912;29;20486;-81
2022/03/11 14:28:18;;;;;;;4.35;1.85;;;5.70;13.80;;;;;;4941119;29;20031;-80
2022/03/11 14:30:45;;;;;;;9.90;1.83;;;5.70;13.90;;;;;;4937824;29;20037;-81
2022/03/11 14:33:10;;;;;;;7.00;3.55;;;5.60;14.10;;;;;;4943020;29;20012;-82
2022/03/11 14:35:37;;;;;;;15.02;2.58;;;5.60;14.70;;;;;;4943838;29;20108;-80
2022/03/11 14:38:04;;;;;;;6.78;2.65;;;5.60;14.30;;;;;;4941708;29;20040;-81
2022/03/11 14:40:31;;;;;;;4.70;2.00;;;5.50;14.20;;;;;;4935119;29;20047;-81